Mount Laguna, CA

4:23 PM PDT on October 25, 2014 (GMT -0700)
Campo | Change Station
CLOSE
Current Station
Airport
Location: Campo,
Elevation: 2648 ft
Nearby Weather Stations

Elev 2648 ft 32.63 °N, 116.47 °W | Updated 31 minutes ago

Clear
Clear
79 °F
Feels Like 79 °F
N
12
Wind Variable Wind from West
Gusts 18 mph

Today
High -- | Low -- °F
--% Chance of Precip.
Yesterday
High -- | Low -- °F
Precip. -- in
6:57 AM 6:01 PM
Waxing Crescent, 5% visible
Pressure 29.93 in
Visibility -9999.0 miles
Clouds
Dew Point 53 °F
Humidity 40%
Rainfall 0.00 in
Snow Depth Not available.
UV Not available.
Pollen 3.90 out of 12
Air Quality Not available.
Flu Activity Sporadic
METAR KCZZ 252252Z AUTO 26010G16KT 26/12 A3001 RMK AO1 SLP134 T02610117

More Conditions Fewer Conditions

Pressure 29.93 in
Visibility -9999.0 miles
Clouds
Dew Point 53 °F
Humidity 40%
Rainfall 0.00 in
Snow Depth Not available.
UV Not available.
Pollen 3.90 out of 12
Air Quality Not available.
Flu Activity Sporadic
METAR KCZZ 252252Z AUTO 26010G16KT 26/12 A3001 RMK AO1 SLP134 T02610117

More Conditions Fewer Conditions

10-Day Weather Forecast

Almanac

Astronomy

Oct. 25, 2014 Rise Set
Actual Time 6:57 AM PDT 6:01 PM PDT
Civil Twilight 6:32 AM PDT 6:26 PM PDT
Nautical Twilight 6:03 AM PDT 6:55 PM PDT
Astronomical Twilight 5:34 AM PDT 7:24 PM PDT
Moon 8:36 AM PDT 7:32 PM PDT
Length of Visible Light 11h 53m
Length of Day
11h 03m
Tomorrow will be 1m 50s shorter.
Waxing Crescent, 5% of the Moon is Illuminated
Today
Waxing Crescent
Oct 30
First Quarter
Nov 6
Full
Nov 14
Last Quarter
Nov 22
New

Today's Extremes

State Highs State Lows

Community

WunderPhotos

Upload Photos

1,765,027 photos uploaded!

Nearby

Snow Depth

Station Depth Elevation
Leavitt Lake 0 in 9400 ft
Leavitt Meadows 1 in 7200 ft
Summit Meadow 0 in 9122 ft
Monitor Pass 0 in 8350 ft
Burnside Lake 0 in 8139 ft

Earthquake Activity

City Distance Mag. Time & Date
Running Springs, California 103 miles 3.1 4:07 AM PDT
2014-10-25
Maneadero, Mexico 90 miles 2.5 7:44 AM PDT
2014-10-24
San Felipe, Mexico 111 miles 3.0 11:00 PM PDT
2014-10-23
Brea, California 112 miles 2.9 3:35 PM PDT
2014-10-23
Minimum magnitude displayed is 2.5.

Coastal Water Temperatures

Place Temperature
No Stations Reporting

Nearby Weather Stations